Time;durP1;ratioP1;P1;durP2;ratioP2;P2;SDS_P1;SDS_P2;PMS_P1;PMS_P2;Temp;Humidity;BMP_temperature;BMP_pressure;BME280_temperature;BME280_humidity;BME280_pressure;Samples;Min_cycle;Max_cycle;Signal;HPM_P1;HPM_P2
2022/07/28 00:02:23;;;;;;;;;;;;;;;;;;5996285;24;9398;-82
2022/07/28 00:04:49;;;;;;;;;;;;;;;;;;5996703;24;8450;-81
2022/07/28 00:07:14;;;;;;;;;;;;;;;;;;5996012;23;6979;-80
2022/07/28 00:09:40;;;;;;;;;;;;;;;;;;5996079;24;8453;-80
2022/07/28 00:12:06;;;;;;;;;;;;;;;;;;5996239;23;6991;-78
2022/07/28 00:14:31;;;;;;;;;;;;;;;;;;5996030;24;7188;-78
2022/07/28 00:16:58;;;;;;;;;;;;;;;;;;5996301;24;6909;-79
2022/07/28 00:19:24;;;;;;;;;;;;;;;;;;5996112;24;7012;-78
2022/07/28 00:21:49;;;;;;;;;;;;;;;;;;5996811;23;7157;-80
2022/07/28 00:24:15;;;;;;;;;;;;;;;;;;5996042;23;6777;-78
2022/07/28 00:26:40;;;;;;;;;;;;;;;;;;5996489;24;8402;-78
2022/07/28 00:29:07;;;;;;;;;;;;;;;;;;5997565;24;6885;-78
2022/07/28 00:31:33;;;;;;;;;;;;;;;;;;5998077;24;7563;-78
2022/07/28 00:33:58;;;;;;;;;;;;;;;;;;5997820;24;8356;-78
2022/07/28 00:36:24;;;;;;;;;;;;;;;;;;5997533;23;7117;-77
2022/07/28 00:38:49;;;;;;;;;;;;;;;;;;5997867;23;7031;-77
2022/07/28 00:41:18;;;;;;;;;;;;;;;;;;5997917;24;8431;-77
2022/07/28 00:43:49;;;;;;;;;;;;;;;;;;5996330;24;7042;-78
2022/07/28 00:46:16;;;;;;;;;;;;;;;;;;5997105;23;8459;-78
2022/07/28 00:48:44;;;;;;;;;;;;;;;;;;5996468;23;6856;-78
2022/07/28 00:51:10;;;;;;;;;;;;;;;;;;5995983;23;8657;-80
2022/07/28 00:53:36;;;;;;;;;;;;;;;;;;5996219;24;8645;-78
2022/07/28 00:56:02;;;;;;;;;;;;;;;;;;5994382;23;6986;-81
2022/07/28 00:58:28;;;;;;;;;;;;;;;;;;5991842;23;8495;-80
2022/07/28 01:00:54;;;;;;;;;;;;;;;;;;5991583;24;8401;-81
2022/07/28 01:03:20;;;;;;;;;;;;;;;;;;5991398;24;8682;-81
2022/07/28 01:05:48;;;;;;;;;;;;;;;;;;5991836;24;6997;-85
2022/07/28 01:08:26;;;;;;;;;;;;;;;;;;6015191;23;8727;-82
2022/07/28 01:11:01;;;;;;;;;;;;;;;;;;5990823;23;8398;-84
2022/07/28 01:13:49;;;;;;;;;;;;;;;;;;5989968;24;6975;-79
2022/07/28 01:16:15;;;;;;;;;;;;;;;;;;5996005;24;7060;-81
2022/07/28 01:18:43;;;;;;;;;;;;;;;;;;5996009;24;7115;-78
2022/07/28 01:21:14;;;;;;;;;;;;;;;;;;6019293;23;8683;-78
2022/07/28 01:23:43;;;;;;;;;;;;;;;;;;5997055;24;6814;-80
2022/07/28 01:26:27;;;;;;;;;;;;;;;;;;6019183;23;6998;-77
2022/07/28 01:28:58;;;;;;;;;;;;;;;;;;5997894;24;8373;-77
2022/07/28 01:31:27;;;;;;;;;;;;;;;;;;6020845;23;8716;-77
2022/07/28 01:34:07;;;;;;;;;;;;;;;;;;5995699;23;7469;-80
2022/07/28 01:36:37;;;;;;;;;;;;;;;;;;5994153;24;8293;-82
2022/07/28 01:39:03;;;;;;;;;;;;;;;;;;5992511;24;7222;-81
2022/07/28 01:41:32;;;;;;;;;;;;;;;;;;5991180;23;8492;-86
2022/07/28 01:44:00;;;;;;;;;;;;;;;;;;5993347;23;6989;-81
2022/07/28 01:46:27;;;;;;;;;;;;;;;;;;5991239;24;8413;-80
2022/07/28 01:48:56;;;;;;;;;;;;;;;;;;5993076;23;8614;-78
2022/07/28 01:51:24;;;;;;;;;;;;;;;;;;5995976;24;7129;-77
2022/07/28 01:53:53;;;;;;;;;;;;;;;;;;5996909;24;8421;-78
2022/07/28 01:56:19;;;;;;;;;;;;;;;;;;5996108;23;8295;-78
2022/07/28 01:58:49;;;;;;;;;;;;;;;;;;5997656;24;6999;-77
2022/07/28 02:01:17;;;;;;;;;;;;;;;;;;5997486;24;6881;-77
2022/07/28 02:03:43;;;;;;;;;;;;;;;;;;5997505;24;8294;-77
2022/07/28 02:06:11;;;;;;;;;;;;;;;;;;5997254;24;8564;-77
2022/07/28 02:08:39;;;;;;;;;;;;;;;;;;5997406;24;8374;-77
2022/07/28 02:13:51;;;;;;;;;;;;;;;;;;6000605;24;6792;-77
2022/07/28 02:16:20;;;;;;;;;;;;;;;;;;5998817;24;8569;-77
2022/07/28 02:18:47;;;;;;;;;;;;;;;;;;5999122;23;8374;-77
2022/07/28 02:21:15;;;;;;;;;;;;;;;;;;5999319;23;7094;-77
2022/07/28 02:23:42;;;;;;;;;;;;;;;;;;5998799;23;7025;-77
2022/07/28 02:26:11;;;;;;;;;;;;;;;;;;6046083;23;8373;-77
2022/07/28 02:28:37;;;;;;;;;;;;;;;;;;5999518;23;6999;-77
2022/07/28 02:31:06;;;;;;;;;;;;;;;;;;5998855;23;8347;-77
2022/07/28 02:33:33;;;;;;;;;;;;;;;;;;5999168;23;8461;-77
2022/07/28 02:36:09;;;;;;;;;;;;;;;;;;5995571;23;8354;-77
2022/07/28 02:38:41;;;;;;;;;;;;;;;;;;5998741;23;8365;-77
2022/07/28 02:41:09;;;;;;;;;;;;;;;;;;5999022;24;8437;-77
2022/07/28 02:43:38;;;;;;;;;;;;;;;;;;5998601;24;7125;-77
2022/07/28 02:46:08;;;;;;;;;;;;;;;;;;5998560;23;8706;-77
2022/07/28 02:48:36;;;;;;;;;;;;;;;;;;5998422;23;7023;-77
2022/07/28 02:51:02;;;;;;;;;;;;;;;;;;5998672;23;7430;-77
2022/07/28 02:53:29;;;;;;;;;;;;;;;;;;5998568;24;8049;-77
2022/07/28 02:55:56;;;;;;;;;;;;;;;;;;5998584;23;7121;-77
2022/07/28 02:58:23;;;;;;;;;;;;;;;;;;5998811;23;8458;-77
2022/07/28 03:00:51;;;;;;;;;;;;;;;;;;5995491;23;8705;-81
2022/07/28 03:03:17;;;;;;;;;;;;;;;;;;5996952;24;7092;-77
2022/07/28 03:05:44;;;;;;;;;;;;;;;;;;5907513;23;12028;-84
2022/07/28 03:08:10;;;;;;;;;;;;;;;;;;5955365;23;12069;-77
2022/07/28 03:10:35;;;;;;;;;;;;;;;;;;5928403;23;11947;-86
2022/07/28 03:13:03;;;;;;;;;;;;;;;;;;6037075;23;7007;-81
2022/07/28 03:15:29;;;;;;;;;;;;;;;;;;5990601;24;7021;-86
2022/07/28 03:17:55;;;;;;;;;;;;;;;;;;5988488;24;7206;-85
2022/07/28 03:20:20;;;;;;;;;;;;;;;;;;5986935;23;7235;-85
2022/07/28 03:22:47;;;;;;;;;;;;;;;;;;5987122;23;6813;-86
2022/07/28 03:25:25;;;;;;;;;;;;;;;;;;5986738;24;8283;-86
2022/07/28 03:27:52;;;;;;;;;;;;;;;;;;5988551;23;8635;-86
2022/07/28 03:30:19;;;;;;;;;;;;;;;;;;5986918;24;8436;-84
2022/07/28 03:33:05;;;;;;;;;;;;;;;;;;5986689;23;7026;-86
2022/07/28 03:35:32;;;;;;;;;;;;;;;;;;5985138;23;8369;-85
2022/07/28 03:38:10;;;;;;;;;;;;;;;;;;5989801;24;7224;-85
2022/07/28 03:40:37;;;;;;;;;;;;;;;;;;5995214;24;8464;-80
2022/07/28 03:43:07;;;;;;;;;;;;;;;;;;5994717;24;7129;-84
2022/07/28 03:45:34;;;;;;;;;;;;;;;;;;5993336;24;7868;-77
2022/07/28 03:47:59;;;;;;;;;;;;;;;;;;5996339;23;7048;-77
2022/07/28 03:50:27;;;;;;;;;;;;;;;;;;5996770;24;7129;-77
2022/07/28 03:52:54;;;;;;;;;;;;;;;;;;5995694;24;7014;-77
2022/07/28 03:55:20;;;;;;;;;;;;;;;;;;5997524;23;7125;-77
2022/07/28 03:57:46;;;;;;;;;;;;;;;;;;5993952;24;7004;-87
2022/07/28 04:00:13;;;;;;;;;;;;;;;;;;5992629;24;7000;-85
2022/07/28 04:02:45;;;;;;;;;;;;;;;;;;5991136;24;8429;-79
2022/07/28 04:05:12;;;;;;;;;;;;;;;;;;5990853;24;6999;-86
2022/07/28 04:07:38;;;;;;;;;;;;;;;;;;5990199;24;8985;-81
2022/07/28 04:10:05;;;;;;;;;;;;;;;;;;5989482;24;8428;-85
2022/07/28 04:12:30;;;;;;;;;;;;;;;;;;5993615;24;6974;-82
2022/07/28 04:14:56;;;;;;;;;;;;;;;;;;5994429;23;8534;-81
2022/07/28 04:17:21;;;;;;;;;;;;;;;;;;5994498;24;6932;-86
2022/07/28 04:19:46;;;;;;;;;;;;;;;;;;5997317;24;8613;-77
2022/07/28 04:22:12;;;;;;;;;;;;;;;;;;5991169;24;8732;-84
2022/07/28 04:24:37;;;;;;;;;;;;;;;;;;5991445;24;7103;-82
2022/07/28 04:27:03;;;;;;;;;;;;;;;;;;5989107;24;8374;-84
2022/07/28 04:29:28;;;;;;;;;;;;;;;;;;5990886;24;6960;-84
2022/07/28 04:31:54;;;;;;;;;;;;;;;;;;5988725;24;8349;-84
2022/07/28 04:34:19;;;;;;;;;;;;;;;;;;5986715;24;7177;-82
2022/07/28 04:36:45;;;;;;;;;;;;;;;;;;5986881;24;8401;-87
2022/07/28 04:39:10;;;;;;;;;;;;;;;;;;5984900;24;6996;-86
2022/07/28 04:41:38;;;;;;;;;;;;;;;;;;5985377;23;6985;-85
2022/07/28 04:44:04;;;;;;;;;;;;;;;;;;5984284;24;7076;-86
2022/07/28 04:46:29;;;;;;;;;;;;;;;;;;5986423;24;7022;-83
2022/07/28 04:48:56;;;;;;;;;;;;;;;;;;5986831;24;8450;-78
2022/07/28 04:51:22;;;;;;;;;;;;;;;;;;5996214;24;7012;-86
2022/07/28 04:53:47;;;;;;;;;;;;;;;;;;5993186;24;8268;-85
2022/07/28 04:56:13;;;;;;;;;;;;;;;;;;5989316;24;8390;-78
2022/07/28 04:58:38;;;;;;;;;;;;;;;;;;5986344;24;7177;-85
2022/07/28 05:01:03;;;;;;;;;;;;;;;;;;5984310;24;7210;-85
2022/07/28 05:03:29;;;;;;;;;;;;;;;;;;5984285;24;6992;-86
2022/07/28 05:05:54;;;;;;;;;;;;;;;;;;5983936;24;8716;-85
2022/07/28 05:08:20;;;;;;;;;;;;;;;;;;5984992;24;8353;-86
2022/07/28 05:10:45;;;;;;;;;;;;;;;;;;5992331;24;8683;-77
2022/07/28 05:13:11;;;;;;;;;;;;;;;;;;5991923;24;7006;-85
2022/07/28 05:15:37;;;;;;;;;;;;;;;;;;5986195;24;7001;-77
2022/07/28 05:18:02;;;;;;;;;;;;;;;;;;5991692;24;7147;-83
2022/07/28 05:20:28;;;;;;;;;;;;;;;;;;5985666;23;7009;-86
2022/07/28 05:22:53;;;;;;;;;;;;;;;;;;5987874;23;7230;-83
2022/07/28 05:25:20;;;;;;;;;;;;;;;;;;5990079;24;6951;-78
2022/07/28 05:27:46;;;;;;;;;;;;;;;;;;5989732;24;7192;-86
2022/07/28 05:30:13;;;;;;;;;;;;;;;;;;5990288;24;8359;-76
2022/07/28 05:32:39;;;;;;;;;;;;;;;;;;5988692;23;8611;-81
2022/07/28 05:35:06;;;;;;;;;;;;;;;;;;5990521;23;8316;-85
2022/07/28 05:37:33;;;;;;;;;;;;;;;;;;5991619;24;7004;-77
2022/07/28 05:40:00;;;;;;;;;;;;;;;;;;5989860;24;8181;-84
2022/07/28 05:42:27;;;;;;;;;;;;;;;;;;5983840;24;8457;-84
2022/07/28 05:44:52;;;;;;;;;;;;;;;;;;5988408;24;7094;-84
2022/07/28 05:47:18;;;;;;;;;;;;;;;;;;5988311;23;8349;-84
2022/07/28 05:49:43;;;;;;;;;;;;;;;;;;5983547;24;7202;-84
2022/07/28 05:52:09;;;;;;;;;;;;;;;;;;5933309;23;11968;-85
2022/07/28 05:54:34;;;;;;;;;;;;;;;;;;6017923;23;8386;-77
2022/07/28 05:56:59;;;;;;;;;;;;;;;;;;6031400;23;8780;-83
2022/07/28 05:59:25;;;;;;;;;;;;;;;;;;6030169;23;7105;-84
2022/07/28 06:01:50;;;;;;;;;;;;;;;;;;6032070;23;8793;-83
2022/07/28 06:04:16;;;;;;;;;;;;;;;;;;6034920;23;8748;-81
2022/07/28 06:06:41;;;;;;;;;;;;;;;;;;6032473;23;8405;-85
2022/07/28 06:09:07;;;;;;;;;;;;;;;;;;6030754;23;7092;-87
2022/07/28 06:11:32;;;;;;;;;;;;;;;;;;6031418;23;8397;-87
2022/07/28 06:13:58;;;;;;;;;;;;;;;;;;6031322;23;7023;-87
2022/07/28 06:16:23;;;;;;;;;;;;;;;;;;6032041;23;6789;-85
2022/07/28 06:18:49;;;;;;;;;;;;;;;;;;6031246;23;7129;-85
2022/07/28 06:21:15;;;;;;;;;;;;;;;;;;6031764;23;8388;-86
2022/07/28 06:23:40;;;;;;;;;;;;;;;;;;6031551;23;7005;-86
2022/07/28 06:26:06;;;;;;;;;;;;;;;;;;6031248;23;6880;-87
2022/07/28 06:28:31;;;;;;;;;;;;;;;;;;6032059;23;7119;-86
2022/07/28 06:30:57;;;;;;;;;;;;;;;;;;6031246;23;8486;-85
2022/07/28 06:33:23;;;;;;;;;;;;;;;;;;6031907;23;8252;-87
2022/07/28 06:35:48;;;;;;;;;;;;;;;;;;6030075;23;8413;-81
2022/07/28 06:38:13;;;;;;;;;;;;;;;;;;6030657;23;7375;-87
2022/07/28 06:40:39;;;;;;;;;;;;;;;;;;6030910;23;8883;-86
2022/07/28 06:43:04;;;;;;;;;;;;;;;;;;6031703;23;7748;-86
2022/07/28 06:45:30;;;;;;;;;;;;;;;;;;6031118;23;7362;-86
2022/07/28 06:47:55;;;;;;;;;;;;;;;;;;6031514;23;7295;-85
2022/07/28 06:50:22;;;;;;;;;;;;;;;;;;6031138;23;7003;-87
2022/07/28 06:52:47;;;;;;;;;;;;;;;;;;6030914;23;6804;-86
2022/07/28 06:55:15;;;;;;;;;;;;;;;;;;6031465;23;7134;-87
2022/07/28 06:57:41;;;;;;;;;;;;;;;;;;6031420;23;8918;-87
2022/07/28 07:00:07;;;;;;;;;;;;;;;;;;6030878;23;8669;-85
2022/07/28 07:02:36;;;;;;;;;;;;;;;;;;6031561;23;6992;-84
2022/07/28 07:05:02;;;;;;;;;;;;;;;;;;6031806;23;8364;-86
2022/07/28 07:07:27;;;;;;;;;;;;;;;;;;6030741;23;8467;-85
2022/07/28 07:09:53;;;;;;;;;;;;;;;;;;6030829;23;7721;-86
2022/07/28 07:12:18;;;;;;;;;;;;;;;;;;6031790;23;8616;-86
2022/07/28 07:14:44;;;;;;;;;;;;;;;;;;6031456;23;6999;-86
2022/07/28 07:17:10;;;;;;;;;;;;;;;;;;6030760;23;7224;-86
2022/07/28 07:19:35;;;;;;;;;;;;;;;;;;6029620;23;8346;-86
2022/07/28 07:22:01;;;;;;;;;;;;;;;;;;6030984;23;6795;-87
2022/07/28 07:24:27;;;;;;;;;;;;;;;;;;6031589;23;6997;-83
2022/07/28 07:26:52;;;;;;;;;;;;;;;;;;6030333;23;6992;-83
2022/07/28 07:29:21;;;;;;;;;;;;;;;;;;6030084;23;6963;-82
2022/07/28 07:31:46;;;;;;;;;;;;;;;;;;6031413;23;8486;-81
2022/07/28 07:34:12;;;;;;;;;;;;;;;;;;6031543;23;7175;-86
2022/07/28 07:36:37;;;;;;;;;;;;;;;;;;6031535;23;8413;-85
2022/07/28 07:39:03;;;;;;;;;;;;;;;;;;6031232;23;7085;-87
2022/07/28 07:41:28;;;;;;;;;;;;;;;;;;6031497;23;6975;-85
2022/07/28 07:43:53;;;;;;;;;;;;;;;;;;6031453;23;8249;-87
2022/07/28 07:46:19;;;;;;;;;;;;;;;;;;6031586;23;8490;-87
2022/07/28 07:48:45;;;;;;;;;;;;;;;;;;6031516;23;8405;-87
2022/07/28 07:51:10;;;;;;;;;;;;;;;;;;6031602;23;8452;-87
2022/07/28 07:53:36;;;;;;;;;;;;;;;;;;6032343;23;6808;-84
2022/07/28 07:56:02;;;;;;;;;;;;;;;;;;6031600;23;7131;-84
2022/07/28 07:58:27;;;;;;;;;;;;;;;;;;6030648;23;8397;-85
2022/07/28 08:00:53;;;;;;;;;;;;;;;;;;6031569;23;7085;-88
2022/07/28 08:03:19;;;;;;;;;;;;;;;;;;6031171;23;8368;-86
2022/07/28 08:05:45;;;;;;;;;;;;;;;;;;6032138;23;6823;-85
2022/07/28 08:08:10;;;;;;;;;;;;;;;;;;6033930;23;8452;-85
2022/07/28 08:10:36;;;;;;;;;;;;;;;;;;6034124;23;7109;-86
2022/07/28 08:13:03;;;;;;;;;;;;;;;;;;6033566;23;8466;-87
2022/07/28 08:15:29;;;;;;;;;;;;;;;;;;6034248;23;7048;-82
2022/07/28 08:17:55;;;;;;;;;;;;;;;;;;6037136;23;7028;-79
2022/07/28 08:20:21;;;;;;;;;;;;;;;;;;6037398;23;6928;-86
2022/07/28 08:22:51;;;;;;;;;;;;;;;;;;6037694;23;7159;-87
2022/07/28 08:25:17;;;;;;;;;;;;;;;;;;6036429;23;7271;-80
2022/07/28 08:27:43;;;;;;;;;;;;;;;;;;6035957;23;8468;-86
2022/07/28 08:30:09;;;;;;;;;;;;;;;;;;6033652;23;7235;-87
2022/07/28 08:32:35;;;;;;;;;;;;;;;;;;6031832;23;6879;-86
2022/07/28 08:35:00;;;;;;;;;;;;;;;;;;6034104;23;6972;-84
2022/07/28 08:37:26;;;;;;;;;;;;;;;;;;6031883;23;7097;-85
2022/07/28 08:39:51;;;;;;;;;;;;;;;;;;6025853;23;8452;-86
2022/07/28 08:42:19;;;;;;;;;;;;;;;;;;6027176;23;8417;-85
2022/07/28 08:44:48;;;;;;;;;;;;;;;;;;6028799;23;7221;-81
2022/07/28 08:47:14;;;;;;;;;;;;;;;;;;6006594;23;6995;-79
2022/07/28 08:49:43;;;;;;;;;;;;;;;;;;6028193;23;8467;-86
2022/07/28 08:52:11;;;;;;;;;;;;;;;;;;6028000;23;8354;-84
2022/07/28 08:54:40;;;;;;;;;;;;;;;;;;6028266;23;6995;-88
2022/07/28 08:57:08;;;;;;;;;;;;;;;;;;6029924;23;9078;-87
2022/07/28 08:59:34;;;;;;;;;;;;;;;;;;6042007;23;8440;-81
2022/07/28 09:02:00;;;;;;;;;;;;;;;;;;6042908;23;7380;-88
2022/07/28 09:04:25;;;;;;;;;;;;;;;;;;6043126;23;8382;-88
2022/07/28 09:06:51;;;;;;;;;;;;;;;;;;6041559;23;7226;-83
2022/07/28 09:09:17;;;;;;;;;;;;;;;;;;6042837;23;8373;-85
2022/07/28 09:11:42;;;;;;;;;;;;;;;;;;6042498;23;7322;-81
2022/07/28 09:14:08;;;;;;;;;;;;;;;;;;6040944;23;8369;-89
2022/07/28 09:16:33;;;;;;;;;;;;;;;;;;6036566;23;7009;-84
2022/07/28 09:18:59;;;;;;;;;;;;;;;;;;6033328;23;8402;-88
2022/07/28 09:21:25;;;;;;;;;;;;;;;;;;6032138;23;8364;-88
2022/07/28 09:23:52;;;;;;;;;;;;;;;;;;6032824;23;8384;-80
2022/07/28 09:26:18;;;;;;;;;;;;;;;;;;6033975;23;7164;-86
2022/07/28 09:28:47;;;;;;;;;;;;;;;;;;6034339;23;8650;-87
2022/07/28 09:31:14;;;;;;;;;;;;;;;;;;6020479;23;8888;-81
2022/07/28 09:33:51;;;;;;;;;;;;;;;;;;6046691;23;8596;-81
2022/07/28 09:36:17;;;;;;;;;;;;;;;;;;6046535;23;8865;-81
2022/07/28 09:38:43;;;;;;;;;;;;;;;;;;6046403;23;8669;-81
2022/07/28 09:41:10;;;;;;;;;;;;;;;;;;6046029;23;7230;-81
2022/07/28 09:43:37;;;;;;;;;;;;;;;;;;6046698;23;8442;-81
2022/07/28 09:46:04;;;;;;;;;;;;;;;;;;6044425;23;7070;-80
2022/07/28 09:48:30;;;;;;;;;;;;;;;;;;6045815;23;7018;-81
2022/07/28 09:51:08;;;;;;;;;;;;;;;;;;5998258;24;8366;-84
2022/07/28 09:53:34;;;;;;;;;;;;;;;;;;6043854;23;7154;-83
2022/07/28 09:56:01;;;;;;;;;;;;;;;;;;6040163;23;8360;-82
2022/07/28 09:58:30;;;;;;;;;;;;;;;;;;6041932;23;7045;-85
2022/07/28 10:01:03;;;;;;;;;;;;;;;;;;6039374;23;7127;-84
2022/07/28 10:03:29;;;;;;;;;;;;;;;;;;6039451;23;8320;-83
2022/07/28 10:05:57;;;;;;;;;;;;;;;;;;6036735;23;7090;-86
2022/07/28 10:08:39;;;;;;;;;;;;;;;;;;6038024;23;7119;-85
2022/07/28 10:11:05;;;;;;;;;;;;;;;;;;6013751;23;7422;-85
2022/07/28 10:13:31;;;;;;;;;;;;;;;;;;6037259;23;7961;-86
2022/07/28 10:16:09;;;;;;;;;;;;;;;;;;6031787;23;8394;-86
2022/07/28 10:18:34;;;;;;;;;;;;;;;;;;6031017;23;8421;-86
2022/07/28 10:21:01;;;;;;;;;;;;;;;;;;6030010;23;8606;-82
2022/07/28 10:23:27;;;;;;;;;;;;;;;;;;6031345;23;8651;-85
2022/07/28 10:25:55;;;;;;;;;;;;;;;;;;6031884;23;6986;-84
2022/07/28 10:28:22;;;;;;;;;;;;;;;;;;6032229;23;8671;-84
2022/07/28 10:30:54;;;;;;;;;;;;;;;;;;6032752;23;9186;-85
2022/07/28 10:33:23;;;;;;;;;;;;;;;;;;6032928;23;8396;-84
2022/07/28 10:35:49;;;;;;;;;;;;;;;;;;6033520;23;8478;-85
2022/07/28 10:38:15;;;;;;;;;;;;;;;;;;6026976;23;8542;-83
2022/07/28 10:40:44;;;;;;;;;;;;;;;;;;6028137;23;7045;-86
2022/07/28 10:43:10;;;;;;;;;;;;;;;;;;6028757;23;7002;-84
2022/07/28 10:45:38;;;;;;;;;;;;;;;;;;6029540;23;7329;-86
2022/07/28 10:48:04;;;;;;;;;;;;;;;;;;6027775;23;8751;-84
2022/07/28 10:50:31;;;;;;;;;;;;;;;;;;6028412;23;6994;-82
2022/07/28 10:52:58;;;;;;;;;;;;;;;;;;6028978;23;8751;-83
2022/07/28 10:55:45;;;;;;;;;;;;;;;;;;6028998;23;8453;-83
2022/07/28 10:58:13;;;;;;;;;;;;;;;;;;6030890;23;8811;-86
2022/07/28 11:00:46;;;;;;;;;;;;;;;;;;6005297;23;9115;-82
2022/07/28 11:03:32;;;;;;;;;;;;;;;;;;6029342;23;9011;-85
2022/07/28 11:06:17;;;;;;;;;;;;;;;;;;6030994;23;8492;-85
2022/07/28 11:08:42;;;;;;;;;;;;;;;;;;6030869;23;8702;-87
2022/07/28 11:11:08;;;;;;;;;;;;;;;;;;6030382;23;7152;-84
2022/07/28 11:13:34;;;;;;;;;;;;;;;;;;6030371;23;9554;-83
2022/07/28 11:16:13;;;;;;;;;;;;;;;;;;6030512;23;7373;-86
2022/07/28 11:18:57;;;;;;;;;;;;;;;;;;6007454;23;7238;-85
2022/07/28 11:21:22;;;;;;;;;;;;;;;;;;5983986;24;8429;-85
2022/07/28 11:23:54;;;;;;;;;;;;;;;;;;6029172;23;8629;-86
2022/07/28 11:26:22;;;;;;;;;;;;;;;;;;6028555;23;8477;-86
2022/07/28 11:29:02;;;;;;;;;;;;;;;;;;6005510;23;8439;-88
2022/07/28 11:31:43;;;;;;;;;;;;;;;;;;6006114;23;7021;-84
2022/07/28 11:34:11;;;;;;;;;;;;;;;;;;6007354;23;8743;-86
2022/07/28 11:36:56;;;;;;;;;;;;;;;;;;6006503;23;8598;-82
2022/07/28 11:39:23;;;;;;;;;;;;;;;;;;5985138;24;7023;-86
2022/07/28 11:41:48;;;;;;;;;;;;;;;;;;6030822;23;7244;-81
2022/07/28 11:44:33;;;;;;;;;;;;;;;;;;6031008;23;8421;-85
2022/07/28 11:47:17;;;;;;;;;;;;;;;;;;6030604;23;8386;-85
2022/07/28 11:49:43;;;;;;;;;;;;;;;;;;5949636;24;8444;-85
2022/07/28 11:52:10;;;;;;;;;;;;;;;;;;5971515;23;7016;-84
2022/07/28 11:54:37;;;;;;;;;;;;;;;;;;5972522;23;7171;-83
2022/07/28 11:57:06;;;;;;;;;;;;;;;;;;5972370;23;7013;-83
2022/07/28 11:59:42;;;;;;;;;;;;;;;;;;5972724;23;8785;-84
2022/07/28 12:02:07;;;;;;;;;;;;;;;;;;5971646;23;7117;-83
2022/07/28 12:04:33;;;;;;;;;;;;;;;;;;5972562;23;8497;-80
2022/07/28 12:06:59;;;;;;;;;;;;;;;;;;5972034;23;6991;-85
2022/07/28 12:09:33;;;;;;;;;;;;;;;;;;5972487;23;7010;-86
2022/07/28 12:11:59;;;;;;;;;;;;;;;;;;5971721;23;8742;-85
2022/07/28 12:14:27;;;;;;;;;;;;;;;;;;5972367;23;8369;-87
2022/07/28 12:16:54;;;;;;;;;;;;;;;;;;5971805;23;8589;-86
2022/07/28 12:19:19;;;;;;;;;;;;;;;;;;5972501;23;7017;-85
2022/07/28 12:21:47;;;;;;;;;;;;;;;;;;5971752;23;8422;-84
2022/07/28 12:24:14;;;;;;;;;;;;;;;;;;5972136;23;7016;-78
2022/07/28 12:26:40;;;;;;;;;;;;;;;;;;5971961;23;7864;-83
2022/07/28 12:29:06;;;;;;;;;;;;;;;;;;5972108;23;8481;-85
2022/07/28 12:31:32;;;;;;;;;;;;;;;;;;5971306;23;7014;-85
2022/07/28 12:33:58;;;;;;;;;;;;;;;;;;5972307;23;9203;-87
2022/07/28 12:36:24;;;;;;;;;;;;;;;;;;5972382;23;8449;-85
2022/07/28 12:38:50;;;;;;;;;;;;;;;;;;5970644;23;8546;-80
2022/07/28 12:41:16;;;;;;;;;;;;;;;;;;5970370;23;7063;-76
2022/07/28 12:43:49;;;;;;;;;;;;;;;;;;5971100;23;8880;-77
2022/07/28 12:46:19;;;;;;;;;;;;;;;;;;5969147;23;7856;-77
2022/07/28 12:48:44;;;;;;;;;;;;;;;;;;6010481;23;8695;-83
2022/07/28 12:51:30;;;;;;;;;;;;;;;;;;6027111;23;7227;-82
2022/07/28 12:53:55;;;;;;;;;;;;;;;;;;5965908;24;8722;-80
2022/07/28 12:56:21;;;;;;;;;;;;;;;;;;6028944;23;8451;-82
2022/07/28 12:58:49;;;;;;;;;;;;;;;;;;6027875;23;8664;-79
2022/07/28 13:01:15;;;;;;;;;;;;;;;;;;6029409;23;7040;-82
2022/07/28 13:03:45;;;;;;;;;;;;;;;;;;6029167;23;8355;-82
2022/07/28 13:06:11;;;;;;;;;;;;;;;;;;6030075;23;8431;-83
2022/07/28 13:08:44;;;;;;;;;;;;;;;;;;6030170;23;7165;-82
2022/07/28 13:11:14;;;;;;;;;;;;;;;;;;6030413;23;8426;-83
2022/07/28 13:13:51;;;;;;;;;;;;;;;;;;6030254;23;7171;-84
2022/07/28 13:16:18;;;;;;;;;;;;;;;;;;6032052;23;7427;-85
2022/07/28 13:18:46;;;;;;;;;;;;;;;;;;6030283;23;8437;-87
2022/07/28 13:21:13;;;;;;;;;;;;;;;;;;6030382;23;8515;-84
2022/07/28 13:23:39;;;;;;;;;;;;;;;;;;6030659;23;8597;-86
2022/07/28 13:26:05;;;;;;;;;;;;;;;;;;6025314;23;8637;-85
2022/07/28 13:28:31;;;;;;;;;;;;;;;;;;6028045;23;7358;-85
2022/07/28 13:30:56;;;;;;;;;;;;;;;;;;6028580;23;8718;-85
2022/07/28 13:33:22;;;;;;;;;;;;;;;;;;6027590;23;8744;-85
2022/07/28 13:35:49;;;;;;;;;;;;;;;;;;6028362;23;8968;-81
2022/07/28 13:38:15;;;;;;;;;;;;;;;;;;6028183;23;7369;-81
2022/07/28 13:40:41;;;;;;;;;;;;;;;;;;6027949;23;8452;-83
2022/07/28 13:43:06;;;;;;;;;;;;;;;;;;6029396;23;7706;-83
2022/07/28 13:45:35;;;;;;;;;;;;;;;;;;6029604;23;7042;-86
2022/07/28 13:48:04;;;;;;;;;;;;;;;;;;6029964;23;8474;-85
2022/07/28 13:50:29;;;;;;;;;;;;;;;;;;6029831;23;8511;-83
2022/07/28 13:52:55;;;;;;;;;;;;;;;;;;6029483;23;7008;-85
2022/07/28 13:55:20;;;;;;;;;;;;;;;;;;6030017;23;8395;-86
2022/07/28 13:57:46;;;;;;;;;;;;;;;;;;6027956;23;8453;-78
2022/07/28 14:00:12;;;;;;;;;;;;;;;;;;6029561;23;8482;-81
2022/07/28 14:02:37;;;;;;;;;;;;;;;;;;6032721;23;7163;-83
2022/07/28 14:05:03;;;;;;;;;;;;;;;;;;6032035;23;7341;-84
2022/07/28 14:07:29;;;;;;;;;;;;;;;;;;6029633;23;8812;-81
2022/07/28 14:09:54;;;;;;;;;;;;;;;;;;6031193;23;7143;-82
2022/07/28 14:12:20;;;;;;;;;;;;;;;;;;6030478;23;7192;-81
2022/07/28 14:14:45;;;;;;;;;;;;;;;;;;6031901;23;8393;-76
2022/07/28 14:17:10;;;;;;;;;;;;;;;;;;6031598;23;8501;-83
2022/07/28 14:19:36;;;;;;;;;;;;;;;;;;6029630;23;7132;-86
2022/07/28 14:22:01;;;;;;;;;;;;;;;;;;6031450;23;8378;-85
2022/07/28 14:24:27;;;;;;;;;;;;;;;;;;6031353;23;8403;-85
2022/07/28 14:26:52;;;;;;;;;;;;;;;;;;6031187;23;8512;-85
2022/07/28 14:29:18;;;;;;;;;;;;;;;;;;6031867;23;8520;-86
2022/07/28 14:31:43;;;;;;;;;;;;;;;;;;6032424;23;8368;-85
2022/07/28 14:34:09;;;;;;;;;;;;;;;;;;6032280;23;8683;-85
2022/07/28 14:36:34;;;;;;;;;;;;;;;;;;6032043;23;8353;-85
2022/07/28 14:39:00;;;;;;;;;;;;;;;;;;6032482;23;7296;-85
2022/07/28 14:41:27;;;;;;;;;;;;;;;;;;6032274;23;7144;-86
2022/07/28 14:43:55;;;;;;;;;;;;;;;;;;6032260;23;8386;-85
2022/07/28 14:46:20;;;;;;;;;;;;;;;;;;6032207;23;8384;-85
2022/07/28 14:48:46;;;;;;;;;;;;;;;;;;6031793;23;8400;-85
2022/07/28 14:51:11;;;;;;;;;;;;;;;;;;6032848;23;8755;-85
2022/07/28 14:53:37;;;;;;;;;;;;;;;;;;6032520;23;8514;-85
2022/07/28 14:56:02;;;;;;;;;;;;;;;;;;6031846;23;8373;-84
2022/07/28 14:58:28;;;;;;;;;;;;;;;;;;6032329;23;8411;-85
2022/07/28 15:00:53;;;;;;;;;;;;;;;;;;6031161;23;8633;-85
2022/07/28 15:03:19;;;;;;;;;;;;;;;;;;6032006;23;9029;-85
2022/07/28 15:05:45;;;;;;;;;;;;;;;;;;6031899;23;7084;-86
2022/07/28 15:08:11;;;;;;;;;;;;;;;;;;6031772;23;7164;-85
2022/07/28 15:10:37;;;;;;;;;;;;;;;;;;6031411;23;8348;-89
2022/07/28 15:13:02;;;;;;;;;;;;;;;;;;6031925;23;8698;-85
2022/07/28 15:15:28;;;;;;;;;;;;;;;;;;6031650;23;8449;-85
2022/07/28 15:17:57;;;;;;;;;;;;;;;;;;6032005;23;8368;-85
2022/07/28 15:20:22;;;;;;;;;;;;;;;;;;6031859;23;7163;-87
2022/07/28 15:22:48;;;;;;;;;;;;;;;;;;6032980;23;7225;-84
2022/07/28 15:25:13;;;;;;;;;;;;;;;;;;6031773;23;8404;-84
2022/07/28 15:27:39;;;;;;;;;;;;;;;;;;6031629;23;8774;-85
2022/07/28 15:30:05;;;;;;;;;;;;;;;;;;6031591;23;8559;-85
2022/07/28 15:32:30;;;;;;;;;;;;;;;;;;6031780;23;8404;-83
2022/07/28 15:34:55;;;;;;;;;;;;;;;;;;6028946;23;8429;-84
2022/07/28 15:37:21;;;;;;;;;;;;;;;;;;6029589;23;7418;-85
2022/07/28 15:39:47;;;;;;;;;;;;;;;;;;6028444;23;8598;-85
2022/07/28 15:42:13;;;;;;;;;;;;;;;;;;6027834;23;7044;-85
2022/07/28 15:44:39;;;;;;;;;;;;;;;;;;6025093;23;9440;-85
2022/07/28 15:47:04;;;;;;;;;;;;;;;;;;6023730;23;6990;-81
2022/07/28 15:49:30;;;;;;;;;;;;;;;;;;6028479;23;8027;-79
2022/07/28 15:51:55;;;;;;;;;;;;;;;;;;6028038;23;8488;-80
2022/07/28 15:54:21;;;;;;;;;;;;;;;;;;6028635;23;8399;-80
2022/07/28 15:56:46;;;;;;;;;;;;;;;;;;6027850;23;8407;-80
2022/07/28 15:59:12;;;;;;;;;;;;;;;;;;6028256;23;8369;-82
2022/07/28 16:01:39;;;;;;;;;;;;;;;;;;6027832;23;7156;-82
2022/07/28 16:04:05;;;;;;;;;;;;;;;;;;6029012;23;8432;-85
2022/07/28 16:09:14;;;;;;;;;;;;;;;;;;5983114;24;7024;-83
2022/07/28 16:11:40;;;;;;;;;;;;;;;;;;6027295;23;7524;-84
2022/07/28 16:14:05;;;;;;;;;;;;;;;;;;6029326;23;7056;-86
2022/07/28 16:16:31;;;;;;;;;;;;;;;;;;6029167;23;8429;-85
2022/07/28 16:18:56;;;;;;;;;;;;;;;;;;6029303;23;8731;-87
2022/07/28 16:21:22;;;;;;;;;;;;;;;;;;6029367;23;8459;-86
2022/07/28 16:23:47;;;;;;;;;;;;;;;;;;6029445;23;7072;-88
2022/07/28 16:26:14;;;;;;;;;;;;;;;;;;6029308;23;7240;-85
2022/07/28 16:28:40;;;;;;;;;;;;;;;;;;6030112;23;7241;-87
2022/07/28 16:31:05;;;;;;;;;;;;;;;;;;6029236;23;8540;-85
2022/07/28 16:33:31;;;;;;;;;;;;;;;;;;6029591;23;8889;-85
2022/07/28 16:35:56;;;;;;;;;;;;;;;;;;6029296;23;7028;-84
2022/07/28 16:38:22;;;;;;;;;;;;;;;;;;6029045;23;8510;-84
2022/07/28 16:40:47;;;;;;;;;;;;;;;;;;6029923;23;8494;-84
2022/07/28 16:43:13;;;;;;;;;;;;;;;;;;6030055;23;8514;-84
2022/07/28 16:45:39;;;;;;;;;;;;;;;;;;6030171;23;8644;-85
2022/07/28 16:48:05;;;;;;;;;;;;;;;;;;6030072;23;8460;-87
2022/07/28 16:50:31;;;;;;;;;;;;;;;;;;6005985;23;7036;-86
2022/07/28 16:52:58;;;;;;;;;;;;;;;;;;6030164;23;8583;-84
2022/07/28 16:55:24;;;;;;;;;;;;;;;;;;6030036;23;7190;-86
2022/07/28 16:57:51;;;;;;;;;;;;;;;;;;6030552;23;8373;-85
2022/07/28 17:00:17;;;;;;;;;;;;;;;;;;6029921;23;8459;-83
2022/07/28 17:02:43;;;;;;;;;;;;;;;;;;6027767;23;8410;-83
2022/07/28 17:05:09;;;;;;;;;;;;;;;;;;6027459;23;8675;-80
2022/07/28 17:07:40;;;;;;;;;;;;;;;;;;6029924;23;6988;-84
2022/07/28 17:10:05;;;;;;;;;;;;;;;;;;6029975;23;7255;-83